Fruitdale, AL (36539)

11:33 PM CST on January 30, 2015 (GMT -0600)
APRSWXNET Calvert AL US | Change Station
CLOSE
Current Station
Personal Weather Station
Location: Calvert, AL
Elevation: 49 ft
Nearby Weather Stations

Elev 49 ft 31.15 °N, 87.98 °W | Updated 33 minutes ago

Partly Cloudy
Partly Cloudy
46 °F
Feels Like 44 °F
N
4
Wind Variable Wind from North
Gusts 8.0 mph

Today
High -- | Low -- °F
--% Chance of Precip.
Yesterday
High -- | Low -- °F
Precip. -- in
6:47 AM 5:26 PM
Waxing Gibbous, 87% visible
Pressure 30.35 in
Visibility 10.0 miles
Clouds Clear
Windchill 44 °F
Dew Point 35 °F
Humidity 65%
Rainfall 0.00 in
Snow Depth Not available.
UV 0 out of 12
Pollen 6.30 out of 12
Air Quality Not available.
Flu Activity Not available.
METAR KMOB 310456Z 01004KT 10SM CLR 06/M01 A3035 RMK AO2 SLP278 T00561006

More Conditions Fewer Conditions

Pressure 30.35 in
Visibility 10.0 miles
Clouds Clear
Windchill 44 °F
Dew Point 35 °F
Humidity 65%
Rainfall 0.00 in
Snow Depth Not available.
UV 0 out of 12
Pollen 6.30 out of 12
Air Quality Not available.
Flu Activity Not available.
METAR KMOB 310456Z 01004KT 10SM CLR 06/M01 A3035 RMK AO2 SLP278 T00561006

More Conditions Fewer Conditions

10-Day Weather Forecast

Almanac

Astronomy

Jan. 30, 2015 Rise Set
Actual Time
Civil Twilight
Nautical Twilight
Astronomical Twilight
Moon
Length of Visible Light
Length of Day
Tomorrow will be .
, % of the Moon is Illuminated

Today's Extremes

State Highs State Lows

Community

WunderPhotos

Upload Photos

1,792,005 photos uploaded!

WunderBlogs® & News

Nearby

Air Quality

  Air Quality AQ Index Pollutant
Not available.

Snow Depth

Station Depth Elevation

Earthquake Activity

City Distance Mag. Time & Date
Minimum magnitude displayed is 2.5.

Coastal Water Temperatures

Place Temperature

Nearby Weather Stations